La Guardia Airport New York US
ICAO: KLGA
IATA: LGA
Category: Large
Scheduled Services: Yes

Elevation: 21 ft
TransAlt. 18000 ft.

Airport Communications:
NEW YORK APP:118
NEW YORK APP:132.7
ATIS:125.95
CLNC DEL:121.875
NEW YORK DEP:120.4
GND:121.7
TWR:118.7
UNICOM:122.95

KLGA Zoom In..

Runways:

(A) RW 04 length 7001 ft width 150 ft
ILS 110.50 / hdg 44

(B) RW 13 length 7003 ft width 150 ft
ILS 108.50 / hdg 134

(C) RW 22 length 7001 ft width 150 ft
ILS 110.50 / hdg 224

(D) RW 31 length 7003 ft width 150 ft
LOC 108.50 / hdg 314

Location; KLGA
Day. 23 / Time. 21.51 Zulu
* Altimeter: 29.56
* Temperature: 13° c. 55.4°f.
* Wind from: 290° Speed 12 kn with Gusts up to 17 kn.
Dewpoint: 09° c.
Visibility: 9 Statute Miles.
Clouds: Broken 4700 ft.
Clouds: Broken 7000 ft.
Clouds: Overcast 1000 ft.

KLGA 232151Z 29012G17KT 9SM BKN047 BKN070 OVC100 13/09 A2956 RMK AO2 RAB37RAEMM SLP009 P0008 T01330094 $


Wind From 290°
Speed 12 kn.

YouTube Music Video
 
jpsmedia.com for Web Design  worldairports.se 2018   terms of use